Latest Weather Observations for Argyle

IDD60801

Issued at 9:51 am CST Thursday 21 November 2019 (issued every 10 minutes, with the page automatically refreshed every 10 minutes)

About weather observations | Map of weather stations | Latest weather observations for NT | Other Formats
Station Details ID: 002064 Name: ARGYLE AERODROME Lat: -16.64 Lon: 128.45 Height: 164.0 m
Data from the previous 72 hours. | See also: Recent months at Argyle
Date/Time
CST
Temp
°C
App
Temp
°C
Dew
Point
°C
Rel
Hum
%
Delta-T
°C
Wind Press
QNH
hPa
Press
MSL
hPa
Rain since
9am
mm
Dir  Spd
km/h
Gust
km/h
Spd
kts
Gust
kts
21/09:30am 37.7 34.8 10.9 20 16.0 SW 17 26 9 14 1010.2 1008.9 0.0
21/09:00am 36.2 35.4 13.0 24 14.2 SW 9 17 5 9 1010.2 1008.9 0.0
21/08:30am 34.7 34.3 14.0 28 12.8 WNW 9 15 5 8 1010.1 1008.8 0.0
21/08:00am 33.7 33.0 14.2 30 12.0 NNW 11 13 6 7 1009.9 1008.6 0.0
21/07:30am 32.0 31.1 13.7 33 11.1 NNW 11 13 6 7 1009.7 1008.4 0.0
21/07:00am 30.5 30.2 13.3 35 10.3 NW 7 9 4 5 1009.5 1008.2 0.0
21/06:30am 30.2 29.6 13.5 36 10.1 NW 9 11 5 6 1008.9 1007.5 0.0
21/06:00am 30.8 29.9 13.6 35 10.4 N 11 15 6 8 1008.4 1007.0 0.0
21/05:30am 30.5 29.8 13.3 35 10.4 NNE 9 13 5 7 1007.9 1006.5 0.0
21/05:00am 30.8 30.0 14.0 36 10.2 N 11 13 6 7 1007.6 1006.2 0.0
21/04:30am 31.0 30.1 13.7 34 10.5 N 11 13 6 7 1007.5 1006.1 0.0
21/04:00am 30.9 31.4 12.8 33 10.8 N 2 9 1 5 1007.5 1006.1 0.0
21/03:30am 32.2 30.8 13.4 32 11.4 NNW 13 20 7 11 1007.3 1005.9 0.0
21/03:00am 32.4 30.3 13.6 32 11.4 NNW 17 22 9 12 1007.1 1005.7 0.0
21/02:30am 31.2 31.0 13.0 33 10.9 SE 6 9 3 5 1007.3 1005.9 0.0
21/02:00am 31.3 31.0 12.6 31 11.2 ENE 6 15 3 8 1007.4 1006.0 0.0
21/01:30am 32.7 31.5 12.9 30 12.0 NNW 11 17 6 9 1007.5 1006.1 0.0
21/01:00am 32.5 30.9 12.7 30 11.9 NW 13 19 7 10 1007.6 1006.2 0.0
21/12:30am 32.7 30.4 12.9 30 12.0 NNW 17 24 9 13 1007.9 1006.5 0.0
21/12:00am 33.1 30.1 12.7 29 12.3 N 20 28 11 15 1008.2 1006.8 0.0
 
Date/Time
CST
Temp
°C
App
Temp
°C
Dew
Point
°C
Rel
Hum
%
Delta-T
°C
Wind Press
QNH
hPa
Press
MSL
hPa
Rain since
9am
mm
Dir  Spd
km/h
Gust
km/h
Spd
kts
Gust
kts
20/11:30pm 33.5 30.1 12.5 28 12.6 N 22 30 12 16 1008.6 1007.2 0.0
20/11:00pm 34.1 30.1 11.9 26 13.2 NNW 24 33 13 18 1008.5 1007.1 0.0
20/10:30pm 34.7 30.7 11.8 25 13.7 N 24 30 13 16 1008.4 1007.0 0.0
20/10:00pm 35.3 31.5 12.3 25 13.9 NNW 24 30 13 16 1008.2 1006.8 0.0
20/09:30pm 35.9 32.4 12.2 24 14.3 N 22 32 12 17 1007.6 1006.2 0.0
20/09:00pm 36.8 33.0 12.3 23 14.9 N 24 33 13 18 1007.3 1005.9 0.0
20/08:30pm 37.6 34.3 10.8 20 16.0 NNE 19 28 10 15 1006.9 1005.5 0.0
20/08:00pm 37.2 34.9 10.5 20 15.8 NE 13 17 7 9 1006.4 1005.0 0.0
20/07:30pm 38.1 35.4 8.8 17 17.0 NE 13 20 7 11 1006.1 1004.7 0.0
20/07:00pm 39.0 36.0 7.7 15 17.9 NE 13 17 7 9 1005.7 1004.3 0.0
20/06:30pm 40.0 36.9 7.4 14 18.7 NE 13 20 7 11 1005.3 1004.0 0.0
20/06:00pm 41.0 38.9 6.0 12 19.7 NNW 6 9 3 5 1005.2 1003.9 0.0
20/05:30pm 40.7 38.6 5.7 12 19.7 NNW 6 19 3 10 1005.0 1003.7 0.0
20/05:00pm 41.0 38.0 6.0 12 19.7 WNW 11 15 6 8 1004.9 1003.6 0.0
20/04:30pm 41.2 38.0 4.9 11 20.2 WNW 11 19 6 10 1004.9 1003.6 0.0
20/04:00pm 41.9 38.0 5.4 11 20.5 NW 15 30 8 16 1005.0 1003.7 0.0
20/03:30pm 41.8 39.0 5.3 11 20.5 SW 9 17 5 9 1005.4 1004.1 0.0
20/03:00pm 40.9 38.6 5.9 12 19.7 NW 7 15 4 8 1005.8 1004.4 0.0
20/02:30pm 40.7 38.0 5.7 12 19.7 W 9 17 5 9 1006.2 1004.8 0.0
20/02:00pm 41.0 38.9 6.0 12 19.7 S 6 9 3 5 1006.6 1005.2 0.0
20/01:30pm 42.1 38.9 6.8 12 20.3 NW 13 22 7 12 1007.1 1005.7 0.0
20/01:00pm 40.5 37.6 6.7 13 19.2 WNW 11 17 6 9 1007.7 1006.3 0.0
20/12:30pm 40.2 37.7 6.5 13 19.1 NNW 9 20 5 11 1008.4 1007.0 0.0
20/12:00pm 40.1 36.0 6.4 13 19.0 W 17 22 9 12 1009.0 1007.7 0.0
20/11:30am 39.7 37.3 7.2 14 18.5 WSW 9 20 5 11 1009.5 1008.2 0.0
20/11:00am 38.9 36.3 7.6 15 17.9 W 11 24 6 13 1009.8 1008.5 0.0
20/10:30am 37.9 35.7 7.7 16 17.2 NW 9 15 5 8 1010.2 1008.9 0.0
20/10:00am 37.2 34.7 8.1 17 16.6 WSW 11 20 6 11 1010.4 1009.1 0.0
20/09:30am 37.1 35.7 9.6 19 16.1 W 7 19 4 10 1010.3 1009.0 0.0
20/09:00am 35.8 32.4 9.3 20 15.3 NW 17 22 9 12 1010.2 1008.9 0.0
20/08:30am 35.1 32.2 9.5 21 14.8 NW 15 20 8 11 1010.1 1008.8 0.0
20/08:00am 34.9 32.5 10.0 22 14.5 NW 13 17 7 9 1009.7 1008.4 0.0
20/07:30am 34.2 31.0 10.1 23 14.0 WNW 17 26 9 14 1009.2 1007.9 0.0
20/07:00am 33.0 31.4 11.5 27 12.7 WNW 11 19 6 10 1008.8 1007.4 0.0
20/06:30am 32.1 30.9 12.8 30 11.6 NW 11 15 6 8 1008.6 1007.2 0.0
20/06:00am 32.3 30.9 13.5 32 11.4 WNW 13 17 7 9 1008.5 1007.1 0.0
20/05:30am 32.0 31.1 13.7 33 11.1 W 11 15 6 8 1008.3 1006.9 0.0
20/05:00am 32.2 31.7 13.9 33 11.2 WNW 9 15 5 8 1008.2 1006.8 0.0
20/04:30am 32.1 32.0 13.8 33 11.2 NW 7 11 4 6 1007.9 1006.5 0.0
20/04:00am 32.5 31.3 14.1 32 11.3 WNW 13 15 7 8 1007.8 1006.4 0.0
20/03:30am 32.3 31.5 14.0 33 11.2 NW 11 15 6 8 1007.7 1006.3 0.0
20/03:00am 32.3 31.4 14.9 35 10.8 WNW 13 15 7 8 1007.8 1006.4 0.0
20/02:30am 32.5 30.9 15.9 36 10.5 NW 19 24 10 13 1007.9 1006.5 0.0
20/02:00am 32.6 30.6 16.4 37 10.3 NW 22 33 12 18 1008.0 1006.6 0.0
20/01:30am 32.8 30.5 16.6 38 10.3 NW 24 32 13 17 1008.0 1006.6 0.0
20/01:00am 32.4 31.6 17.1 40 9.8 NNW 17 20 9 11 1008.4 1007.0 0.0
20/12:30am 32.6 31.7 16.8 38 10.1 NNW 17 22 9 12 1008.7 1007.3 0.0
20/12:00am 33.1 31.3 15.6 35 11.0 NNW 19 24 10 13 1008.8 1007.4 0.0
 
Date/Time
CST
Temp
°C
App
Temp
°C
Dew
Point
°C
Rel
Hum
%
Delta-T
°C
Wind Press
QNH
hPa
Press
MSL
hPa
Rain since
9am
mm
Dir  Spd
km/h
Gust
km/h
Spd
kts
Gust
kts
19/11:30pm 33.7 31.4 14.7 32 11.8 NNW 20 24 11 13 1009.0 1007.7 0.0
19/11:00pm 34.6 31.9 14.5 30 12.5 NNW 22 28 12 15 1009.1 1007.8 0.0
19/10:30pm 35.2 33.0 13.4 27 13.4 N 17 24 9 13 1008.9 1007.5 0.0
19/10:00pm 35.2 33.2 11.6 24 14.1 N 13 17 7 9 1008.7 1007.3 0.0
19/09:30pm 35.8 33.6 9.3 20 15.3 N 11 13 6 7 1008.4 1007.0 0.0
19/09:00pm 35.7 33.9 9.3 20 15.3 NNW 9 11 5 6 1008.2 1006.8 0.0
19/08:30pm 36.3 34.6 9.8 20 15.5 N 9 13 5 7 1008.1 1006.7 0.0
19/08:00pm 36.4 34.3 9.8 20 15.5 NNE 11 15 6 8 1007.8 1006.4 0.0
19/07:30pm 37.0 34.5 9.6 19 16.0 NE 13 19 7 10 1007.5 1006.1 0.0
19/07:00pm 37.8 34.1 9.4 18 16.6 NE 19 26 10 14 1007.1 1005.7 0.0
19/06:30pm 38.9 34.5 6.6 14 18.2 NE 19 30 10 16 1006.8 1005.4 0.0
19/06:00pm 40.8 37.9 4.6 11 20.0 N 9 24 5 13 1006.4 1005.0 0.0
19/05:30pm 41.3 37.3 4.9 11 20.3 N 15 24 8 13 1006.1 1004.7 0.0
19/05:00pm 41.4 38.2 5.0 11 20.2 NNW 11 22 6 12 1006.1 1004.7 0.0
19/04:30pm 41.3 37.4 3.6 10 20.6 NNE 13 20 7 11 1006.2 1004.8 0.0
19/04:00pm 41.0 38.1 4.7 11 20.1 NNE 9 17 5 9 1006.4 1005.0 0.0
19/03:30pm 41.1 35.9 3.4 10 20.5 N 20 32 11 17 1006.7 1005.3 0.0
19/03:00pm 40.9 37.6 4.6 11 20.0 ESE 11 20 6 11 1006.9 1005.5 0.0
19/02:30pm 39.8 36.5 6.2 13 18.9 NNE 13 22 7 12 1007.3 1005.9 0.0
19/02:00pm 40.0 37.5 6.4 13 19.0 N 9 20 5 11 1007.6 1006.2 0.0
19/01:30pm 39.1 37.1 8.7 16 17.7 NNE 9 24 5 13 1008.2 1006.8 0.0
19/01:00pm 39.0 36.4 9.5 17 17.3 NE 13 20 7 11 1008.9 1007.5 0.0
19/12:30pm 39.6 36.9 9.1 16 17.9 N 13 26 7 14 1009.4 1008.1 0.0
19/12:00pm 39.2 36.8 8.8 16 17.7 NNE 11 20 6 11 1010.1 1008.8 0.0
19/11:30am 38.9 36.2 5.5 13 18.5 NW 9 19 5 10 1010.5 1009.2 0.0
19/11:00am 38.1 36.9 9.6 18 16.7 SW 6 9 3 5 1011.0 1009.7 0.0
19/10:30am 36.9 35.9 11.0 21 15.4 N 7 11 4 6 1011.4 1010.1 0.0
19/10:00am 36.2 35.8 12.4 24 14.4 NW 6 13 3 7 1011.7 1010.4 0.0
19/09:30am 35.1 33.9 12.7 26 13.6 NNE 11 15 6 8 1011.8 1010.5 0.0
19/09:00am 33.8 33.1 13.3 29 12.5 N 9 13 5 7 1011.6 1010.3 0.0
19/08:30am 32.5 31.7 14.1 32 11.3 N 11 13 6 7 1011.5 1010.2 0.0
19/08:00am 31.2 30.2 13.5 34 10.7 N 11 13 6 7 1011.3 1010.0 0.0
19/07:30am 30.4 30.1 14.5 38 9.7 NNE 9 11 5 6 1011.1 1009.8 0.0
19/07:00am 29.1 28.6 12.5 36 9.8 N 7 9 4 5 1010.9 1009.6 0.0
19/06:30am 29.1 29.8 12.1 35 10.0 CALM 0 7 0 4 1010.3 1009.0 0.0
19/06:00am 28.8 28.9 11.4 34 10.1 SSW 2 6 1 3 1010.1 1008.8 0.0
19/05:30am 30.0 29.3 12.0 33 10.6 SSW 7 9 4 5 1009.8 1008.5 0.0
19/05:00am 29.7 29.1 11.7 33 10.5 S 6 9 3 5 1009.5 1008.2 0.0
19/04:30am 30.2 29.4 11.7 32 10.8 SSE 7 9 4 5 1009.4 1008.1 0.0
19/04:00am 29.8 29.5 12.7 35 10.2 S 6 9 3 5 1009.1 1007.8 0.0
19/03:30am 29.9 30.9 13.2 36 10.0 CALM 0 0 0 0 1009.1 1007.8 0.0
19/03:00am 30.0 29.3 12.0 33 10.6 S 7 9 4 5 1009.1 1007.8 0.0
19/02:30am 30.7 30.2 12.1 32 11.0 NNW 6 9 3 5 1008.8 1007.4 0.0
19/02:00am 31.2 29.5 12.5 31 11.1 NNW 13 15 7 8 1008.9 1007.5 0.0
19/01:30am 31.3 30.0 12.6 31 11.2 NNW 11 13 6 7 1009.3 1008.0 0.0
19/01:00am 32.0 29.9 12.3 30 11.7 NNW 15 19 8 10 1009.5 1008.2 0.0
19/12:30am 32.8 29.9 12.4 29 12.2 N 19 24 10 13 1009.8 1008.5 0.0
19/12:00am 33.4 31.3 12.4 28 12.6 N 15 20 8 11 1010.0 1008.7 0.0
 
Date/Time
CST
Temp
°C
App
Temp
°C
Dew
Point
°C
Rel
Hum
%
Delta-T
°C
Wind Press
QNH
hPa
Press
MSL
hPa
Rain since
9am
mm
Dir  Spd
km/h
Gust
km/h
Spd
kts
Gust
kts
18/11:30pm 33.8 32.2 12.7 27 12.7 NNW 13 15 7 8 1010.1 1008.8 0.0
18/11:00pm 34.3 32.3 12.6 27 13.1 NNW 15 19 8 10 1010.2 1008.9 0.0
18/10:30pm 34.9 32.1 12.5 25 13.5 NNW 19 26 10 14 1010.1 1008.8 0.0
18/10:00pm 35.3 31.8 12.3 25 13.9 N 22 32 12 17 1010.0 1008.7 0.0
18/09:30pm 35.4 32.1 6.6 17 16.0 N 13 15 7 8 1009.6 1008.3 0.0
18/09:00pm 35.5 32.8 3.9 14 16.8 NW 7 11 4 6 1009.2 1007.9 0.0
18/08:30pm 36.3 32.8 3.5 13 17.4 NNE 11 13 6 7 1009.1 1007.8 0.0
18/08:00pm 36.4 32.5 3.6 13 17.4 NE 13 17 7 9 1009.0 1007.7 0.0
18/07:30pm 37.1 33.5 3.0 12 18.0 NNE 11 13 6 7 1008.8 1007.4 0.0
18/07:00pm 38.5 34.9 2.8 11 18.9 NE 11 19 6 10 1008.5 1007.1 0.0
18/06:30pm 39.9 35.7 3.9 11 19.6 N 15 22 8 12 1008.1 1006.7 0.0
18/06:00pm 40.3 36.7 2.8 10 20.1 ENE 11 20 6 11 1007.9 1006.5 0.0
18/05:30pm 40.6 36.9 4.4 11 19.9 N 13 19 7 10 1007.8 1006.4 0.0
18/05:00pm 40.8 37.1 4.6 11 20.0 NE 13 20 7 11 1007.7 1006.3 0.0
18/04:30pm 40.9 37.2 4.6 11 20.1 NE 13 26 7 14 1007.7 1006.3 0.0
18/04:00pm 40.9 37.7 3.3 10 20.3 SSE 9 19 5 10 1008.0 1006.6 0.0
18/03:30pm 40.5 36.5 3.0 10 20.2 NNE 13 28 7 15 1008.3 1006.9 0.0
18/03:00pm 40.3 37.6 5.4 12 19.4 ESE 9 26 5 14 1008.7 1007.3 0.0
18/02:30pm 39.4 35.1 3.5 11 19.4 NE 15 26 8 14 1009.2 1007.9 0.0
18/02:00pm 40.6 36.1 4.4 11 19.9 E 17 28 9 15 1009.7 1008.4 0.0
18/01:30pm 41.0 37.0 4.7 11 20.1 ENE 15 22 8 12 1010.4 1009.1 0.0
18/01:00pm 40.0 36.9 7.4 14 18.7 E 13 22 7 12 1011.0 1009.7 0.0
18/12:30pm 39.2 35.1 7.8 15 18.0 ENE 19 30 10 16 1011.6 1010.3 0.0
18/12:00pm 38.7 34.5 7.4 15 17.8 ENE 19 30 10 16 1012.2 1010.8 0.0
18/11:30am 38.4 35.0 9.0 17 17.1 E 17 32 9 17 1012.6 1011.2 0.0

Other formats

Comma delimited format used in spreadsheet applications
http://www.bom.gov.au/fwo/IDD60801/IDD60801.94217.axf

JavaScript Object Notation format (JSON) in row-major order
http://www.bom.gov.au/fwo/IDD60801/IDD60801.94217.json

Data quality

Most of these data are generated automatically and are frequently updated. Quality checks on data are not normally performed. It is possible for incorrect values to appear. Refer to information at About Latest Weather Observations and please check the disclaimer before using these data.